Sunday, October 21, 2018, 5:55 AM GMT
Back to Local

CYQI, Yarmouth, N. S.

Location: , , Canada Lat: 43.833
Local Time: 5:55 AM GMT ( 5:55 GMT) Lon: -66.083
Time Zone: GMT Elev: 141 ft

Show me the last for .
Show Coded

Time T Td Feel RH Dir Speed Gust Alt SLP Vis Weather Sky Remarks
2018-10-21 05:00 52 50 - 93 260° 8 - 29.52 29.53 15 FEW075 None
2018-10-21 04:00 52 50 - 93 260° 8 - 29.52 29.53 15 SCT075 None
2018-10-21 03:00 52 52 - 100 250° 8 - 29.53 29.53 12 SCT078 None
2018-10-21 02:00 54 54 - 100 250° 8 - 29.53 29.53 12 BKN079 None
2018-10-21 01:52 54 54 - 100 250° 8 - 29.53 29.53 10 OVC079 None
2018-10-21 01:00 55 54 - 93 230° 8 - 29.53 29.54 6 BR BKN004 OVC038 None
2018-10-21 00:00 55 54 - 93 240° 10 - 29.54 29.54 6 BR SCT004 OVC037 None
2018-10-20 23:19 55 54 - 93 220° 8 - 29.54 29.54 4 BR OVC063 None
2018-10-20 23:00 55 54 - 93 230° 9 - 29.54 29.55 4 -DZ BR BKN016 OVC035 None
2018-10-20 22:42 55 55 - 100 230° 10 22 29.55 29.56 3 -DZ BR OVC028 None
2018-10-20 22:00 55 55 - 100 210° 14 22 29.55 29.56 2 -SHRA BR BKN017 OVC023 None
2018-10-20 21:41 55 54 - 93 210° 13 20 29.56 29.57 4 -SHRA BR BKN019 OVC036 None
2018-10-20 21:24 55 54 - 93 210° 13 21 29.55 29.56 4 BR BKN020 OVC035 None
2018-10-20 21:00 55 55 - 100 210° 14 20 29.56 29.57 4 -SHRA BR BKN020 OVC037 None
2018-10-20 20:20 55 55 - 100 210° 15 22 29.58 29.59 4 -SHRA BR SCT010 BKN035 OVC060 None
2018-10-20 20:00 55 55 - 100 210° 17 24 29.58 29.59 4 BR BKN014 OVC030 None
2018-10-20 19:40 55 55 - 100 210° 17 28 29.59 29.60 4 BR BKN014 OVC040 None
2018-10-20 19:21 57 55 - 93 200° 14 24 29.60 29.60 7 FEW006 SCT028 OVC050 None
2018-10-20 19:00 57 55 - 93 210° 17 25 29.60 29.61 6 -SHRA SCT007 OVC051 None
2018-10-20 18:05 57 54 - 87 210° 18 25 29.61 29.62 4 -SHRA SCT008 OVC045 None
2018-10-20 18:00 57 55 - 93 210° 18 25 29.61 29.62 7 SCT008 OVC056 None
2018-10-20 17:12 57 57 - 100 200° 16 25 29.63 29.64 4 BR SCT007 SCT017 BKN050 OVC068 None
2018-10-20 17:00 57 55 - 93 200° 14 20 29.64 29.65 3 -DZ BR FEW007 SCT015 OVC035 Pressure falling rapidly
2018-10-20 16:51 57 55 - 93 210° 14 21 29.65 29.66 3 -DZ BR SCT006 OVC017 Pressure falling rapidly
2018-10-20 16:39 57 55 - 93 220° 15 29 29.67 29.67 3 -SHRA BR FEW007 OVC017 None
2018-10-20 16:22 57 55 - 93 210° 21 31 29.67 29.68 2 -SHRA BR SCT006 OVC044 None
2018-10-20 16:00 57 55 - 93 200° 22 33 29.68 29.68 4 -SHRA SCT005 OVC030 None
2018-10-20 15:16 57 55 - 93 190° 22 28 29.70 29.71 6 -SHRA FEW007 OVC064 None
2018-10-20 15:00 55 54 - 93 200° 18 25 29.71 29.72 7 FEW009 OVC066 None
2018-10-20 14:32 55 54 - 93 190° 20 26 29.71 29.72 7 FEW007 OVC074 None
2018-10-20 14:00 55 54 - 93 190° 16 23 29.72 29.72 6 -DZ SCT007 BKN011 OVC078 Pressure falling rapidly
2018-10-20 13:48 55 54 - 93 200° 17 28 29.73 29.74 6 -DZ FEW006 BKN014 OVC085 None
2018-10-20 13:10 55 54 - 93 200° 21 30 29.76 29.76 5 -SHRA FEW008 BKN011 OVC030 None
2018-10-20 13:00 55 54 - 93 200° 20 31 29.77 29.77 4 -RA FEW008 BKN011 OVC032 None
2018-10-20 12:50 55 55 - 100 200° 23 35 29.78 29.78 4 -RA BKN014 OVC066 None
2018-10-20 12:40 57 54 - 87 200° 26 37 29.78 29.78 3 -RA BKN030 OVC066 Pressure rising rapidly
2018-10-20 12:08 57 54 - 87 200° 22 32 29.77 29.77 7 -SHRA FEW035 OVC075 None
2018-10-20 12:02 57 54 - 87 200° 21 28 29.77 29.77 9 -DZ FEW035 OVC080 None
2018-10-20 12:00 57 54 - 87 200° 20 28 29.77 29.77 9 FEW035 OVC100 None
2018-10-20 11:00 55 52 - 87 200° 20 30 29.77 29.78 12 BKN035 OVC120 None
2018-10-20 10:00 55 52 - 87 200° 16 28 29.80 29.81 15 BKN028 OVC140 None
2018-10-20 09:00 55 52 - 87 200° 20 26 29.81 29.82 15 BKN017 OVC150 None
2018-10-20 08:00 54 50 - 87 200° 20 29 29.82 29.83 15 FEW021 OVC160 None
2018-10-20 07:00 54 52 - 93 210° 16 25 29.85 29.86 15 FEW014 BKN180 None
2018-10-20 06:00 54 50 - 87 200° 17 - 29.87 29.88 15 FEW024 OVC190 None

Support USWX by starting your Amazon purchase here.